LiveATC.Net - Listen to live air traffic control over the Internet! Contact for advertising information

ICAO: SEGU  IATA: GYE   Airport: Jose Joaquin de Olmedo International Airport
City: Guayaquil
Country: Ecuador   Continent: South America
SEGU METAR Weather: SEGU 010900Z 22003KT 9999 FEW023 BKN100 25/22 Q1005 NOSIG RMK A2970
SEGU Flight Activity (FlightAware)
SEGU Gnd/Twr/App/Center
Feed Status: DOWN
Last heard on: 2015-11-17 12:05:03 (13 days 21 hours 11 minutes ago)
SEGU Gnd/Twr/App/Center Audio Archives
Guayaquil Approach126.900
Guayaquil Control128.300
Guayaquil Ground121.900
Guayaquil Radar127.950
Guayaquil Tower118.300


Unauthorized use prohibited. See Terms of Service

Find LiveATC Audio Streams

Airport/ARTCC Code

(e.g., 124.400, 128.75)
Site-wide search

Browse LiveATC Feeds
LiveATC Coverage Map
Top 50 LiveATC Feeds
Bad Weather Areas

Offer a LiveATC Feed
Press Inquiries

LiveATC on iPhone
LiveATC on Android

Windows Phone
Windows 8/10

LiveATC Mobile
(Mobile browser)

ATC Audio Archives
Interesting Recordings

LiveATC Forums

Home Page
Make a Donation
LiveATC Bookstore

Terms of Use
Privacy Policy

ATC/Radar Sites
U.S. ARTCC Freqs
Canadian Air Freqs


FAA Airport Status
Nat'l Airspace Status
Arrival Demand Charts

Server Software By:

Please make a donation to help us keep growing!